sensor_id;sensor_type;location;lat;lon;timestamp;pressure;altitude;pressure_sealevel;temperature;humidity
42725;BME280;28369;44.046;23.014;2022-10-13T00:00:21;101764.66;;;16.87;72.82
42725;BME280;28369;44.046;23.014;2022-10-13T00:02:48;101729.69;;;16.82;72.82
42725;BME280;28369;44.046;23.014;2022-10-13T00:05:13;101970.31;;;18.10;73.24
42725;BME280;28369;44.046;23.014;2022-10-13T00:07:39;101915.09;;;17.74;73.33
42725;BME280;28369;44.046;23.014;2022-10-13T00:10:04;101905.91;;;17.59;73.33
42725;BME280;28369;44.046;23.014;2022-10-13T00:12:34;101760.88;;;16.80;72.97
42725;BME280;28369;44.046;23.014;2022-10-13T00:14:59;101908.69;;;17.67;73.20
42725;BME280;28369;44.046;23.014;2022-10-13T00:17:25;101746.09;;;16.57;73.34
42725;BME280;28369;44.046;23.014;2022-10-13T00:19:50;101745.97;;;16.49;73.63
42725;BME280;28369;44.046;23.014;2022-10-13T00:22:16;101952.63;;;17.71;74.07
42725;BME280;28369;44.046;23.014;2022-10-13T00:24:41;101868.50;;;17.13;74.11
42725;BME280;28369;44.046;23.014;2022-10-13T00:27:07;101914.09;;;17.28;74.57
42725;BME280;28369;44.046;23.014;2022-10-13T00:29:32;101731.00;;;16.19;74.40
42725;BME280;28369;44.046;23.014;2022-10-13T00:31:58;101685.50;;;15.94;74.72
42725;BME280;28369;44.046;23.014;2022-10-13T00:34:23;101948.19;;;17.42;75.32
42725;BME280;28369;44.046;23.014;2022-10-13T00:36:49;101715.50;;;16.04;75.61
42725;BME280;28369;44.046;23.014;2022-10-13T00:39:15;101863.78;;;16.97;75.50
42725;BME280;28369;44.046;23.014;2022-10-13T00:41:40;101918.28;;;17.11;76.61
42725;BME280;28369;44.046;23.014;2022-10-13T00:47:09;101830.75;;;16.41;78.95
42725;BME280;28369;44.046;23.014;2022-10-13T00:49:35;101933.94;;;17.14;79.13
42725;BME280;28369;44.046;23.014;2022-10-13T00:52:01;101928.94;;;17.11;80.09
42725;BME280;28369;44.046;23.014;2022-10-13T00:54:26;101809.34;;;16.13;83.37
42725;BME280;28369;44.046;23.014;2022-10-13T00:56:54;101821.16;;;15.89;85.80
42725;BME280;28369;44.046;23.014;2022-10-13T00:59:22;101731.56;;;15.83;83.08
42725;BME280;28369;44.046;23.014;2022-10-13T01:01:51;101558.63;;;14.49;84.10
42725;BME280;28369;44.046;23.014;2022-10-13T01:04:18;101723.88;;;15.40;86.10
42725;BME280;28369;44.046;23.014;2022-10-13T01:06:48;101862.72;;;16.30;88.07
42725;BME280;28369;44.046;23.014;2022-10-13T01:09:13;101813.66;;;15.95;90.00
42725;BME280;28369;44.046;23.014;2022-10-13T01:14:30;101836.41;;;16.07;92.44
42725;BME280;28369;44.046;23.014;2022-10-13T01:19:48;101931.53;;;16.82;89.77
42725;BME280;28369;44.046;23.014;2022-10-13T01:22:44;101867.09;;;16.60;88.67
42725;BME280;28369;44.046;23.014;2022-10-13T01:30:33;101809.53;;;16.61;88.26
42725;BME280;28369;44.046;23.014;2022-10-13T01:33:13;101867.41;;;16.96;87.06
42725;BME280;28369;44.046;23.014;2022-10-13T01:35:56;101906.94;;;17.19;87.27
42725;BME280;28369;44.046;23.014;2022-10-13T01:39:00;101869.91;;;17.07;86.99
42725;BME280;28369;44.046;23.014;2022-10-13T01:41:34;101899.13;;;17.17;86.57
42725;BME280;28369;44.046;23.014;2022-10-13T01:44:08;101889.22;;;17.19;85.62
42725;BME280;28369;44.046;23.014;2022-10-13T01:46:37;101805.63;;;16.55;85.25
42725;BME280;28369;44.046;23.014;2022-10-13T01:49:06;101847.44;;;16.92;84.86
42725;BME280;28369;44.046;23.014;2022-10-13T01:51:34;101741.22;;;16.23;84.98
42725;BME280;28369;44.046;23.014;2022-10-13T01:54:00;101718.59;;;16.00;84.14
42725;BME280;28369;44.046;23.014;2022-10-13T01:56:25;101897.34;;;16.98;84.58
42725;BME280;28369;44.046;23.014;2022-10-13T01:58:52;101682.25;;;15.71;84.18
42725;BME280;28369;44.046;23.014;2022-10-13T02:02:20;101886.69;;;16.98;83.76
42725;BME280;28369;44.046;23.014;2022-10-13T02:05:40;101863.47;;;16.81;83.28
42725;BME280;28369;44.046;23.014;2022-10-13T02:08:00;101888.09;;;16.92;83.26
42725;BME280;28369;44.046;23.014;2022-10-13T02:10:43;101862.91;;;16.87;83.01
42725;BME280;28369;44.046;23.014;2022-10-13T02:13:13;101808.81;;;16.58;83.18
42725;BME280;28369;44.046;23.014;2022-10-13T02:15:43;101839.88;;;16.78;82.69
42725;BME280;28369;44.046;23.014;2022-10-13T02:18:12;101793.19;;;16.46;82.36
42725;BME280;28369;44.046;23.014;2022-10-13T02:20:40;101679.72;;;15.69;82.12
42725;BME280;28369;44.046;23.014;2022-10-13T02:23:08;101787.72;;;16.37;81.92
42725;BME280;28369;44.046;23.014;2022-10-13T02:25:36;101686.97;;;15.67;81.92
42725;BME280;28369;44.046;23.014;2022-10-13T02:28:03;101736.31;;;15.89;81.98
42725;BME280;28369;44.046;23.014;2022-10-13T02:30:30;101749.88;;;15.96;81.42
42725;BME280;28369;44.046;23.014;2022-10-13T02:32:57;101806.53;;;15.95;82.08
42725;BME280;28369;44.046;23.014;2022-10-13T02:35:24;101652.53;;;14.86;82.75
42725;BME280;28369;44.046;23.014;2022-10-13T02:37:49;101681.22;;;15.12;81.50
42725;BME280;28369;44.046;23.014;2022-10-13T02:40:15;101753.38;;;15.66;80.69
42725;BME280;28369;44.046;23.014;2022-10-13T02:42:40;101888.69;;;16.26;80.72
42725;BME280;28369;44.046;23.014;2022-10-13T02:45:06;101880.59;;;16.28;81.17
42725;BME280;28369;44.046;23.014;2022-10-13T02:47:32;101872.47;;;16.19;80.98
42725;BME280;28369;44.046;23.014;2022-10-13T02:49:58;101792.72;;;15.61;80.89
42725;BME280;28369;44.046;23.014;2022-10-13T02:52:23;101605.34;;;14.39;81.08
42725;BME280;28369;44.046;23.014;2022-10-13T02:54:48;101684.09;;;14.99;80.97
42725;BME280;28369;44.046;23.014;2022-10-13T02:57:14;101685.72;;;14.90;81.82
42725;BME280;28369;44.046;23.014;2022-10-13T02:59:40;101868.66;;;16.02;81.94
42725;BME280;28369;44.046;23.014;2022-10-13T03:02:05;101618.31;;;14.42;81.98
42725;BME280;28369;44.046;23.014;2022-10-13T03:04:31;101666.25;;;14.28;83.69
42725;BME280;28369;44.046;23.014;2022-10-13T03:06:57;101569.22;;;13.86;82.84
42725;BME280;28369;44.046;23.014;2022-10-13T03:09:22;101822.38;;;15.54;83.55
42725;BME280;28369;44.046;23.014;2022-10-13T03:11:48;101800.84;;;15.38;83.24
42725;BME280;28369;44.046;23.014;2022-10-13T03:14:13;101812.38;;;15.58;82.95
42725;BME280;28369;44.046;23.014;2022-10-13T03:16:39;101633.16;;;14.33;82.56
42725;BME280;28369;44.046;23.014;2022-10-13T03:19:04;101797.38;;;15.47;82.40
42725;BME280;28369;44.046;23.014;2022-10-13T03:21:30;101669.75;;;14.71;81.92
42725;BME280;28369;44.046;23.014;2022-10-13T03:23:55;101785.59;;;15.30;81.56
42725;BME280;28369;44.046;23.014;2022-10-13T03:26:21;101897.06;;;15.81;81.81
42725;BME280;28369;44.046;23.014;2022-10-13T03:28:50;101836.84;;;15.19;82.99
42725;BME280;28369;44.046;23.014;2022-10-13T03:31:16;101846.66;;;15.29;82.66
42725;BME280;28369;44.046;23.014;2022-10-13T03:33:43;101749.53;;;14.66;82.93
42725;BME280;28369;44.046;23.014;2022-10-13T03:36:10;101833.88;;;14.71;85.33
42725;BME280;28369;44.046;23.014;2022-10-13T03:38:37;101870.19;;;14.57;86.99
42725;BME280;28369;44.046;23.014;2022-10-13T03:41:06;101818.97;;;14.03;88.42
42725;BME280;28369;44.046;23.014;2022-10-13T03:43:32;101593.56;;;12.91;88.38
42725;BME280;28369;44.046;23.014;2022-10-13T03:45:59;101896.56;;;14.91;88.74
42725;BME280;28369;44.046;23.014;2022-10-13T03:48:26;101849.31;;;14.86;88.68
42725;BME280;28369;44.046;23.014;2022-10-13T03:50:52;101453.19;;;12.42;89.54
42725;BME280;28369;44.046;23.014;2022-10-13T03:53:17;101667.06;;;13.75;90.09
42725;BME280;28369;44.046;23.014;2022-10-13T03:55:48;101577.59;;;13.04;90.89
42725;BME280;28369;44.046;23.014;2022-10-13T03:58:14;101763.66;;;14.11;92.02
42725;BME280;28369;44.046;23.014;2022-10-13T04:00:39;101887.41;;;14.95;90.76
42725;BME280;28369;44.046;23.014;2022-10-13T04:03:04;101650.31;;;13.53;89.31
42725;BME280;28369;44.046;23.014;2022-10-13T04:05:33;101775.44;;;14.51;88.37
42725;BME280;28369;44.046;23.014;2022-10-13T04:07:58;101829.34;;;14.82;86.71
42725;BME280;28369;44.046;23.014;2022-10-13T04:10:24;101636.53;;;13.82;85.88
42725;BME280;28369;44.046;23.014;2022-10-13T04:12:49;101896.59;;;15.54;85.52
42725;BME280;28369;44.046;23.014;2022-10-13T04:15:15;101808.69;;;14.97;85.41
42725;BME280;28369;44.046;23.014;2022-10-13T04:17:40;101796.78;;;14.92;84.59
42725;BME280;28369;44.046;23.014;2022-10-13T04:20:06;101824.91;;;15.04;83.95
42725;BME280;28369;44.046;23.014;2022-10-13T04:22:32;101814.75;;;14.88;83.50
42725;BME280;28369;44.046;23.014;2022-10-13T04:24:57;101813.06;;;14.87;83.35
42725;BME280;28369;44.046;23.014;2022-10-13T04:27:23;101680.19;;;13.97;82.93
42725;BME280;28369;44.046;23.014;2022-10-13T04:29:49;101846.81;;;15.06;82.89
42725;BME280;28369;44.046;23.014;2022-10-13T04:32:14;101672.38;;;13.96;82.52
42725;BME280;28369;44.046;23.014;2022-10-13T04:34:40;101794.03;;;14.61;82.76
42725;BME280;28369;44.046;23.014;2022-10-13T04:37:05;101802.94;;;14.71;82.80
42725;BME280;28369;44.046;23.014;2022-10-13T04:39:31;101661.41;;;13.79;82.86
42725;BME280;28369;44.046;23.014;2022-10-13T04:42:00;101776.91;;;14.44;83.24
42725;BME280;28369;44.046;23.014;2022-10-13T04:44:26;101792.22;;;14.61;83.10
42725;BME280;28369;44.046;23.014;2022-10-13T04:46:51;101653.63;;;13.67;82.83
42725;BME280;28369;44.046;23.014;2022-10-13T04:49:17;101868.03;;;15.16;83.05
42725;BME280;28369;44.046;23.014;2022-10-13T04:51:42;101691.69;;;14.08;82.93
42725;BME280;28369;44.046;23.014;2022-10-13T04:54:08;101785.16;;;14.83;82.14
42725;BME280;28369;44.046;23.014;2022-10-13T04:56:34;101663.84;;;14.04;81.79
42725;BME280;28369;44.046;23.014;2022-10-13T04:59:00;101686.53;;;14.06;81.00
42725;BME280;28369;44.046;23.014;2022-10-13T05:01:26;101715.81;;;14.14;80.12
42725;BME280;28369;44.046;23.014;2022-10-13T05:03:56;101773.97;;;14.58;79.53
42725;BME280;28369;44.046;23.014;2022-10-13T05:06:23;101764.25;;;14.47;79.23
42725;BME280;28369;44.046;23.014;2022-10-13T05:08:49;101683.78;;;14.08;78.58
42725;BME280;28369;44.046;23.014;2022-10-13T05:11:16;101829.38;;;15.03;78.40
42725;BME280;28369;44.046;23.014;2022-10-13T05:13:42;101709.13;;;14.31;78.15
42725;BME280;28369;44.046;23.014;2022-10-13T05:16:12;101891.34;;;15.64;78.09
42725;BME280;28369;44.046;23.014;2022-10-13T05:18:39;101739.75;;;14.78;77.76
42725;BME280;28369;44.046;23.014;2022-10-13T05:21:31;101879.31;;;15.60;77.10
42725;BME280;28369;44.046;23.014;2022-10-13T05:23:57;101701.63;;;14.48;77.31
42725;BME280;28369;44.046;23.014;2022-10-13T05:26:25;101801.31;;;14.80;77.17
42725;BME280;28369;44.046;23.014;2022-10-13T05:28:54;101752.63;;;14.17;78.89
42725;BME280;28369;44.046;23.014;2022-10-13T05:31:22;101761.44;;;14.39;79.53
42725;BME280;28369;44.046;23.014;2022-10-13T05:33:48;101599.56;;;13.71;78.65
42725;BME280;28369;44.046;23.014;2022-10-13T05:36:16;101931.63;;;16.10;77.46
42725;BME280;28369;44.046;23.014;2022-10-13T05:38:42;101679.63;;;14.68;76.78
42725;BME280;28369;44.046;23.014;2022-10-13T05:41:10;101890.16;;;15.99;77.17
42725;BME280;28369;44.046;23.014;2022-10-13T05:43:37;101904.09;;;16.01;78.03
42725;BME280;28369;44.046;23.014;2022-10-13T05:46:04;101703.81;;;15.06;77.23
42725;BME280;28369;44.046;23.014;2022-10-13T05:48:30;101713.47;;;15.17;76.97
42725;BME280;28369;44.046;23.014;2022-10-13T05:50:57;101599.84;;;14.52;77.34
42725;BME280;28369;44.046;23.014;2022-10-13T05:53:26;101959.78;;;16.83;77.80
42725;BME280;28369;44.046;23.014;2022-10-13T05:55:53;101697.50;;;15.38;77.82
42725;BME280;28369;44.046;23.014;2022-10-13T05:58:20;101853.53;;;16.34;78.72
42725;BME280;28369;44.046;23.014;2022-10-13T06:00:46;101879.41;;;16.61;79.42
42725;BME280;28369;44.046;23.014;2022-10-13T06:03:15;101949.91;;;17.24;79.16
42725;BME280;28369;44.046;23.014;2022-10-13T06:05:42;101917.59;;;17.19;78.88
42725;BME280;28369;44.046;23.014;2022-10-13T06:08:12;101942.31;;;17.39;78.43
42725;BME280;28369;44.046;23.014;2022-10-13T06:10:38;101912.63;;;17.53;77.46
42725;BME280;28369;44.046;23.014;2022-10-13T06:13:04;101895.47;;;17.48;77.45
42725;BME280;28369;44.046;23.014;2022-10-13T06:15:29;101979.41;;;18.07;77.86
42725;BME280;28369;44.046;23.014;2022-10-13T06:17:54;101924.88;;;17.84;77.65
42725;BME280;28369;44.046;23.014;2022-10-13T06:20:20;101761.84;;;16.98;76.62
42725;BME280;28369;44.046;23.014;2022-10-13T06:22:46;101968.91;;;18.43;76.20
42725;BME280;28369;44.046;23.014;2022-10-13T06:25:14;101787.03;;;17.41;75.68
42725;BME280;28369;44.046;23.014;2022-10-13T06:27:39;101874.97;;;18.05;75.77
42725;BME280;28369;44.046;23.014;2022-10-13T06:30:06;101900.13;;;18.39;75.07
42725;BME280;28369;44.046;23.014;2022-10-13T06:32:31;101747.91;;;17.61;72.69
42725;BME280;28369;44.046;23.014;2022-10-13T06:34:57;101903.78;;;18.56;70.51
42725;BME280;28369;44.046;23.014;2022-10-13T06:37:23;101951.34;;;18.96;68.89
42725;BME280;28369;44.046;23.014;2022-10-13T06:39:49;101972.72;;;19.23;68.44
42725;BME280;28369;44.046;23.014;2022-10-13T06:42:14;101747.50;;;17.84;68.33
42725;BME280;28369;44.046;23.014;2022-10-13T06:44:40;101816.00;;;18.28;67.53
42725;BME280;28369;44.046;23.014;2022-10-13T06:47:09;101914.00;;;18.78;68.88
42725;BME280;28369;44.046;23.014;2022-10-13T06:49:35;101837.81;;;18.31;67.97
42725;BME280;28369;44.046;23.014;2022-10-13T06:52:01;101923.34;;;18.64;67.85
42725;BME280;28369;44.046;23.014;2022-10-13T06:54:26;101818.03;;;17.88;69.12
42725;BME280;28369;44.046;23.014;2022-10-13T06:56:52;101889.91;;;18.62;68.52
42725;BME280;28369;44.046;23.014;2022-10-13T06:59:17;101793.09;;;17.99;67.23
42725;BME280;28369;44.046;23.014;2022-10-13T07:01:43;101829.53;;;18.35;67.11
42725;BME280;28369;44.046;23.014;2022-10-13T07:04:08;101991.16;;;19.34;66.97
42725;BME280;28369;44.046;23.014;2022-10-13T07:06:35;101784.56;;;18.31;69.03
42725;BME280;28369;44.046;23.014;2022-10-13T07:12:40;101889.16;;;19.32;66.16
42725;BME280;28369;44.046;23.014;2022-10-13T07:18:27;101966.34;;;20.12;65.12
42725;BME280;28369;44.046;23.014;2022-10-13T07:20:53;101964.06;;;20.26;66.00
42725;BME280;28369;44.046;23.014;2022-10-13T07:23:19;101975.50;;;20.52;63.85
42725;BME280;28369;44.046;23.014;2022-10-13T07:25:44;101907.31;;;19.81;63.91
42725;BME280;28369;44.046;23.014;2022-10-13T07:28:10;101882.31;;;19.56;63.41
42725;BME280;28369;44.046;23.014;2022-10-13T07:30:38;101776.53;;;19.04;62.57
42725;BME280;28369;44.046;23.014;2022-10-13T07:33:04;101791.78;;;19.20;63.59
42725;BME280;28369;44.046;23.014;2022-10-13T07:48:48;101974.75;;;20.68;63.12
42725;BME280;28369;44.046;23.014;2022-10-13T07:51:14;101950.13;;;20.48;62.39
42725;BME280;28369;44.046;23.014;2022-10-13T07:53:41;101866.88;;;20.10;61.45
42725;BME280;28369;44.046;23.014;2022-10-13T07:56:09;101909.06;;;20.58;60.98
42725;BME280;28369;44.046;23.014;2022-10-13T07:58:40;101876.81;;;20.34;62.06
42725;BME280;28369;44.046;23.014;2022-10-13T08:01:06;101779.78;;;19.93;60.88
42725;BME280;28369;44.046;23.014;2022-10-13T08:03:32;101830.94;;;20.55;61.25
42725;BME280;28369;44.046;23.014;2022-10-13T08:05:59;101771.66;;;20.27;57.39
42725;BME280;28369;44.046;23.014;2022-10-13T08:08:25;101964.97;;;21.51;57.71
42725;BME280;28369;44.046;23.014;2022-10-13T08:10:50;101746.78;;;20.10;57.06
42725;BME280;28369;44.046;23.014;2022-10-13T08:13:16;101767.25;;;19.93;56.36
42725;BME280;28369;44.046;23.014;2022-10-13T08:15:43;101752.59;;;19.89;56.83
42725;BME280;28369;44.046;23.014;2022-10-13T08:18:10;101930.84;;;20.96;57.33
42725;BME280;28369;44.046;23.014;2022-10-13T08:20:40;101936.88;;;21.31;55.00
42725;BME280;28369;44.046;23.014;2022-10-13T08:23:06;101907.63;;;21.04;54.62
42725;BME280;28369;44.046;23.014;2022-10-13T08:25:40;101688.69;;;19.79;53.99
42725;BME280;28369;44.046;23.014;2022-10-13T08:28:16;101864.38;;;21.01;54.79
42725;BME280;28369;44.046;23.014;2022-10-13T08:30:42;101893.22;;;21.47;54.26
42725;BME280;28369;44.046;23.014;2022-10-13T08:33:08;101959.91;;;21.81;53.93
42725;BME280;28369;44.046;23.014;2022-10-13T08:35:33;101957.16;;;21.98;53.02
42725;BME280;28369;44.046;23.014;2022-10-13T08:37:59;101762.66;;;20.94;53.06
42725;BME280;28369;44.046;23.014;2022-10-13T08:40:25;101889.38;;;21.57;52.79
42725;BME280;28369;44.046;23.014;2022-10-13T08:42:50;101925.75;;;21.91;52.45
42725;BME280;28369;44.046;23.014;2022-10-13T08:45:23;101940.16;;;21.82;53.97
42725;BME280;28369;44.046;23.014;2022-10-13T08:47:55;101967.28;;;22.19;52.42
42725;BME280;28369;44.046;23.014;2022-10-13T08:50:26;101989.41;;;22.21;51.92
42725;BME280;28369;44.046;23.014;2022-10-13T08:52:56;101913.69;;;21.87;51.54
42725;BME280;28369;44.046;23.014;2022-10-13T08:55:47;101894.34;;;21.69;52.98
42725;BME280;28369;44.046;23.014;2022-10-13T08:58:21;101960.34;;;22.49;52.81
42725;BME280;28369;44.046;23.014;2022-10-13T09:00:52;101956.38;;;22.37;52.10
42725;BME280;28369;44.046;23.014;2022-10-13T09:03:26;101874.88;;;21.91;52.69
42725;BME280;28369;44.046;23.014;2022-10-13T09:06:13;101790.56;;;21.87;51.80
42725;BME280;28369;44.046;23.014;2022-10-13T09:08:43;101946.06;;;22.80;50.78
42725;BME280;28369;44.046;23.014;2022-10-13T09:11:13;101887.66;;;22.52;49.88
42725;BME280;28369;44.046;23.014;2022-10-13T09:13:39;101959.41;;;22.88;51.42
42725;BME280;28369;44.046;23.014;2022-10-13T09:16:05;101928.59;;;23.07;50.41
42725;BME280;28369;44.046;23.014;2022-10-13T09:18:31;101823.91;;;22.63;49.75
42725;BME280;28369;44.046;23.014;2022-10-13T09:21:23;101949.34;;;23.37;49.10
42725;BME280;28369;44.046;23.014;2022-10-13T09:23:50;101854.59;;;22.60;49.46
42725;BME280;28369;44.046;23.014;2022-10-13T09:26:21;101903.03;;;23.20;48.99
42725;BME280;28369;44.046;23.014;2022-10-13T09:28:47;101948.72;;;23.50;49.18
42725;BME280;28369;44.046;23.014;2022-10-13T09:33:39;101926.88;;;23.53;48.33
42725;BME280;28369;44.046;23.014;2022-10-13T09:36:07;101951.03;;;23.83;48.67
42725;BME280;28369;44.046;23.014;2022-10-13T09:38:36;101872.72;;;23.49;49.08
42725;BME280;28369;44.046;23.014;2022-10-13T09:41:13;101928.72;;;23.82;48.16
42725;BME280;28369;44.046;23.014;2022-10-13T09:46:32;101793.94;;;22.97;47.87
42725;BME280;28369;44.046;23.014;2022-10-13T09:52:02;101813.59;;;23.12;48.70
42725;BME280;28369;44.046;23.014;2022-10-13T10:11:51;101921.03;;;24.24;45.41
42725;BME280;28369;44.046;23.014;2022-10-13T10:14:37;101913.25;;;24.50;45.33
42725;BME280;28369;44.046;23.014;2022-10-13T10:23:20;101876.69;;;24.56;43.18
42725;BME280;28369;44.046;23.014;2022-10-13T10:26:02;101805.03;;;24.20;44.56
42725;BME280;28369;44.046;23.014;2022-10-13T10:56:46;101825.75;;;24.91;42.24
42725;BME280;28369;44.046;23.014;2022-10-13T10:59:22;101734.09;;;24.36;42.96
42725;BME280;28369;44.046;23.014;2022-10-13T11:05:12;101819.19;;;24.29;43.90
42725;BME280;28369;44.046;23.014;2022-10-13T11:36:54;101713.09;;;24.68;43.07
42725;BME280;28369;44.046;23.014;2022-10-13T11:46:31;101806.84;;;24.78;43.37
42725;BME280;28369;44.046;23.014;2022-10-13T11:52:09;101779.75;;;24.79;42.63
42725;BME280;28369;44.046;23.014;2022-10-13T11:58:25;101791.13;;;25.10;42.29
42725;BME280;28369;44.046;23.014;2022-10-13T12:03:39;101777.81;;;24.73;44.06
42725;BME280;28369;44.046;23.014;2022-10-13T12:26:47;101719.88;;;24.99;41.43
42725;BME280;28369;44.046;23.014;2022-10-13T12:32:34;101753.50;;;25.23;41.11
42725;BME280;28369;44.046;23.014;2022-10-13T12:35:37;101760.69;;;25.44;41.60
42725;BME280;28369;44.046;23.014;2022-10-13T12:38:06;101559.50;;;24.08;40.74
42725;BME280;28369;44.046;23.014;2022-10-13T12:40:37;101682.16;;;24.86;40.97
42725;BME280;28369;44.046;23.014;2022-10-13T12:43:03;101678.50;;;25.00;40.68
42725;BME280;28369;44.046;23.014;2022-10-13T12:45:31;101505.78;;;23.86;41.10
42725;BME280;28369;44.046;23.014;2022-10-13T12:51:28;101713.97;;;24.82;41.89
42725;BME280;28369;44.046;23.014;2022-10-13T12:53:54;101721.50;;;24.93;41.67
42725;BME280;28369;44.046;23.014;2022-10-13T12:56:30;101681.69;;;24.75;41.20
42725;BME280;28369;44.046;23.014;2022-10-13T13:02:32;101701.53;;;24.74;41.21
42725;BME280;28369;44.046;23.014;2022-10-13T13:07:59;101602.34;;;24.23;41.74
42725;BME280;28369;44.046;23.014;2022-10-13T13:10:24;101712.16;;;24.89;41.71
42725;BME280;28369;44.046;23.014;2022-10-13T13:12:51;101666.19;;;24.49;41.51
42725;BME280;28369;44.046;23.014;2022-10-13T13:17:51;101706.97;;;24.81;42.21
42725;BME280;28369;44.046;23.014;2022-10-13T13:20:26;101659.72;;;24.43;42.07
42725;BME280;28369;44.046;23.014;2022-10-13T13:23:11;101580.19;;;24.14;41.34
42725;BME280;28369;44.046;23.014;2022-10-13T13:29:08;101665.00;;;24.93;41.26
42725;BME280;28369;44.046;23.014;2022-10-13T13:31:34;101712.13;;;25.24;41.48
42725;BME280;28369;44.046;23.014;2022-10-13T13:34:00;101691.88;;;25.28;41.04
42725;BME280;28369;44.046;23.014;2022-10-13T13:36:42;101691.69;;;24.95;41.98
42725;BME280;28369;44.046;23.014;2022-10-13T13:42:29;101677.72;;;25.13;41.10
42725;BME280;28369;44.046;23.014;2022-10-13T13:52:02;101692.03;;;25.20;41.13
42725;BME280;28369;44.046;23.014;2022-10-13T13:57:51;101654.00;;;24.53;41.91
42725;BME280;28369;44.046;23.014;2022-10-13T14:03:39;101664.09;;;24.44;41.50
42725;BME280;28369;44.046;23.014;2022-10-13T14:09:29;101659.09;;;24.41;41.49
42725;BME280;28369;44.046;23.014;2022-10-13T14:15:27;101684.72;;;24.37;41.64
42725;BME280;28369;44.046;23.014;2022-10-13T14:21:15;101698.88;;;24.53;42.04
42725;BME280;28369;44.046;23.014;2022-10-13T14:27:02;101660.19;;;24.47;41.00
42725;BME280;28369;44.046;23.014;2022-10-13T14:29:28;101685.34;;;24.67;41.95
42725;BME280;28369;44.046;23.014;2022-10-13T14:31:53;101675.13;;;24.56;42.08
42725;BME280;28369;44.046;23.014;2022-10-13T14:34:19;101652.41;;;24.30;42.52
42725;BME280;28369;44.046;23.014;2022-10-13T14:36:54;101525.81;;;23.55;42.50
42725;BME280;28369;44.046;23.014;2022-10-13T14:42:42;101691.25;;;24.56;43.00
42725;BME280;28369;44.046;23.014;2022-10-13T14:45:07;101693.50;;;24.53;42.96
42725;BME280;28369;44.046;23.014;2022-10-13T14:47:33;101671.38;;;24.22;43.54
42725;BME280;28369;44.046;23.014;2022-10-13T14:50:16;101680.69;;;24.26;44.10
42725;BME280;28369;44.046;23.014;2022-10-13T14:56:24;101630.31;;;23.42;45.24
42725;BME280;28369;44.046;23.014;2022-10-13T15:02:12;101697.66;;;23.84;45.82
42725;BME280;28369;44.046;23.014;2022-10-13T15:08:00;101645.66;;;23.26;46.90
42725;BME280;28369;44.046;23.014;2022-10-13T15:13:55;101659.78;;;23.35;46.71
42725;BME280;28369;44.046;23.014;2022-10-13T15:19:52;101654.88;;;23.09;47.32
42725;BME280;28369;44.046;23.014;2022-10-13T15:22:17;101626.50;;;22.85;47.82
42725;BME280;28369;44.046;23.014;2022-10-13T15:24:43;101668.22;;;23.02;47.93
42725;BME280;28369;44.046;23.014;2022-10-13T15:30:34;101692.25;;;22.95;48.42
42725;BME280;28369;44.046;23.014;2022-10-13T15:32:59;101696.50;;;22.90;48.64
42725;BME280;28369;44.046;23.014;2022-10-13T15:35:28;101667.81;;;22.46;49.51
42725;BME280;28369;44.046;23.014;2022-10-13T15:37:55;101679.41;;;22.61;49.13
42725;BME280;28369;44.046;23.014;2022-10-13T15:40:20;101627.28;;;22.34;49.50
42725;BME280;28369;44.046;23.014;2022-10-13T15:42:46;101656.09;;;22.23;50.11
42725;BME280;28369;44.046;23.014;2022-10-13T15:45:11;101637.81;;;22.12;49.92
42725;BME280;28369;44.046;23.014;2022-10-13T15:47:37;101529.13;;;21.41;50.26
42725;BME280;28369;44.046;23.014;2022-10-13T15:50:03;101652.66;;;22.00;50.59
42725;BME280;28369;44.046;23.014;2022-10-13T15:52:28;101691.28;;;22.20;50.30
42725;BME280;28369;44.046;23.014;2022-10-13T15:54:54;101635.41;;;21.79;51.22
42725;BME280;28369;44.046;23.014;2022-10-13T15:57:20;101518.44;;;20.95;51.20
42725;BME280;28369;44.046;23.014;2022-10-13T16:03:16;101627.06;;;21.51;51.63
42725;BME280;28369;44.046;23.014;2022-10-13T16:09:03;101699.03;;;21.69;52.29
42725;BME280;28369;44.046;23.014;2022-10-13T16:14:51;101658.41;;;21.34;52.56
42725;BME280;28369;44.046;23.014;2022-10-13T16:20:37;101653.97;;;21.18;52.56
42725;BME280;28369;44.046;23.014;2022-10-13T16:23:04;101642.44;;;21.17;52.86
42725;BME280;28369;44.046;23.014;2022-10-13T16:25:30;101676.78;;;21.37;53.10
42725;BME280;28369;44.046;23.014;2022-10-13T16:27:56;101675.97;;;21.28;53.01
42725;BME280;28369;44.046;23.014;2022-10-13T16:30:23;101614.16;;;20.92;52.85
42725;BME280;28369;44.046;23.014;2022-10-13T16:32:49;101656.88;;;21.00;53.54
42725;BME280;28369;44.046;23.014;2022-10-13T16:35:14;101591.69;;;20.61;53.77
42725;BME280;28369;44.046;23.014;2022-10-13T16:37:40;101577.38;;;20.46;53.94
42725;BME280;28369;44.046;23.014;2022-10-13T16:40:06;101657.78;;;20.84;54.51
42725;BME280;28369;44.046;23.014;2022-10-13T16:42:32;101571.44;;;20.19;55.06
42725;BME280;28369;44.046;23.014;2022-10-13T16:44:57;101612.97;;;20.38;55.27
42725;BME280;28369;44.046;23.014;2022-10-13T16:47:23;101684.00;;;20.80;55.51
42725;BME280;28369;44.046;23.014;2022-10-13T16:49:48;101565.94;;;20.12;55.24
42725;BME280;28369;44.046;23.014;2022-10-13T16:52:14;101594.63;;;20.18;55.57
42725;BME280;28369;44.046;23.014;2022-10-13T16:54:39;101654.19;;;20.44;56.11
42725;BME280;28369;44.046;23.014;2022-10-13T16:57:05;101451.13;;;19.15;56.47